Time;durP1;ratioP1;P1;durP2;ratioP2;P2;SDS_P1;SDS_P2;PMS_P1;PMS_P2;Temp;Humidity;BMP_temperature;BMP_pressure;BME280_temperature;BME280_humidity;BME280_pressure;Samples;Min_cycle;Max_cycle;Signal;HPM_P1;HPM_P2
2024/01/01 00:00:04;;;;;;;24.67;17.37;;;11.90;56.20;;;;;;349706;28;1084;-54
2024/01/01 00:00:15;;;;;;;23.58;16.85;;;11.80;56.30;;;;;;349665;28;1008;-55
2024/01/01 00:00:26;;;;;;;24.05;17.23;;;11.80;56.20;;;;;;349693;28;1202;-55
2024/01/01 00:00:37;;;;;;;23.40;17.02;;;11.90;56.20;;;;;;349674;28;1122;-54
2024/01/01 00:00:48;;;;;;;23.40;17.08;;;11.80;56.10;;;;;;349577;28;1794;-54
2024/01/01 00:00:58;;;;;;;25.00;17.13;;;11.90;56.10;;;;;;349735;28;1016;-58
2024/01/01 00:01:09;;;;;;;25.10;17.00;;;11.90;56.10;;;;;;349712;28;976;-55
2024/01/01 00:01:20;;;;;;;25.33;17.23;;;11.90;56.10;;;;;;349691;28;985;-55
2024/01/01 00:01:41;;;;;;;24.55;16.95;;;11.90;56.10;;;;;;349705;28;1040;-56
2024/01/01 00:01:55;;;;;;;22.80;16.95;;;11.90;56.10;;;;;;349605;28;1429;-55
2024/01/01 00:02:05;;;;;;;23.17;17.15;;;11.90;56.10;;;;;;349707;28;1684;-56
2024/01/01 00:02:16;;;;;;;24.83;17.10;;;11.90;56.10;;;;;;349680;28;895;-55
2024/01/01 00:02:27;;;;;;;25.38;17.25;;;11.90;56.10;;;;;;349722;28;1032;-55
2024/01/01 00:02:38;;;;;;;24.67;17.07;;;11.90;56.00;;;;;;349722;28;1035;-55
2024/01/01 00:02:49;;;;;;;24.45;17.55;;;11.80;56.00;;;;;;349642;28;1126;-54
2024/01/01 00:03:00;;;;;;;24.73;18.17;;;11.90;56.00;;;;;;349738;28;834;-55
2024/01/01 00:03:10;;;;;;;25.98;17.88;;;11.90;56.00;;;;;;349746;28;1108;-54
2024/01/01 00:03:21;;;;;;;26.27;17.98;;;11.90;56.00;;;;;;349636;28;1044;-57
2024/01/01 00:03:32;;;;;;;26.83;17.17;;;11.90;56.00;;;;;;349766;28;1008;-55
2024/01/01 00:03:45;;;;;;;25.63;17.40;;;11.90;56.00;;;;;;349733;28;992;-56
2024/01/01 00:03:56;;;;;;;26.27;17.15;;;11.90;56.00;;;;;;349645;28;931;-56
2024/01/01 00:04:08;;;;;;;26.42;17.73;;;11.90;56.10;;;;;;349721;28;1167;-57
2024/01/01 00:04:19;;;;;;;28.58;17.65;;;11.90;56.10;;;;;;349700;28;1206;-57
2024/01/01 00:04:30;;;;;;;27.30;17.30;;;11.90;56.10;;;;;;349721;28;1084;-55
2024/01/01 00:04:41;;;;;;;25.17;17.00;;;11.90;56.20;;;;;;349679;28;909;-56
2024/01/01 00:04:52;;;;;;;22.38;16.77;;;12.00;56.20;;;;;;349739;28;889;-55
2024/01/01 00:05:02;;;;;;;23.83;16.73;;;11.90;56.20;;;;;;349770;28;833;-56
2024/01/01 00:05:13;;;;;;;23.25;16.83;;;11.90;56.20;;;;;;349725;28;937;-56
2024/01/01 00:05:24;;;;;;;23.45;17.13;;;11.90;56.20;;;;;;349725;28;1079;-55
2024/01/01 00:05:36;;;;;;;22.40;16.83;;;11.90;56.20;;;;;;349642;28;1000;-54
2024/01/01 00:05:47;;;;;;;23.23;16.67;;;11.90;56.20;;;;;;349732;28;885;-55
2024/01/01 00:05:58;;;;;;;25.95;17.00;;;11.90;56.20;;;;;;349696;28;989;-55
2024/01/01 00:06:09;;;;;;;26.77;16.80;;;11.90;56.20;;;;;;349760;28;956;-55
2024/01/01 00:06:20;;;;;;;27.25;16.52;;;11.90;56.10;;;;;;349771;28;862;-55
2024/01/01 00:06:31;;;;;;;26.07;16.40;;;11.90;56.10;;;;;;349593;28;1318;-56
2024/01/01 00:06:42;;;;;;;28.25;16.60;;;11.90;56.00;;;;;;349719;28;1040;-54
2024/01/01 00:06:52;;;;;;;26.52;16.48;;;11.90;56.00;;;;;;349749;28;1455;-54
2024/01/01 00:07:03;;;;;;;24.17;16.55;;;11.90;56.00;;;;;;349721;28;1169;-53
2024/01/01 00:07:14;;;;;;;22.38;16.80;;;11.90;55.90;;;;;;349716;28;1162;-55
2024/01/01 00:07:25;;;;;;;23.47;16.80;;;11.90;55.90;;;;;;349692;28;962;-54
2024/01/01 00:07:35;;;;;;;23.23;16.43;;;11.90;55.90;;;;;;349755;28;976;-56
2024/01/01 00:07:50;;;;;;;22.83;16.33;;;11.90;55.90;;;;;;349767;28;1016;-54
2024/01/01 00:08:01;;;;;;;23.88;16.35;;;11.90;55.80;;;;;;349733;28;1032;-54
2024/01/01 00:08:12;;;;;;;23.75;16.05;;;11.90;55.90;;;;;;349735;28;1075;-55
2024/01/01 00:08:22;;;;;;;22.47;15.97;;;11.90;55.80;;;;;;349692;28;1043;-54
2024/01/01 00:08:33;;;;;;;21.20;15.70;;;11.90;55.70;;;;;;349685;28;1252;-55
2024/01/01 00:08:44;;;;;;;23.38;16.08;;;11.90;55.60;;;;;;349705;28;1115;-54
2024/01/01 00:08:55;;;;;;;23.95;16.08;;;11.90;55.60;;;;;;349695;28;1005;-54
2024/01/01 00:09:05;;;;;;;24.60;16.40;;;11.90;55.60;;;;;;349763;28;1789;-54
2024/01/01 00:09:16;;;;;;;24.53;16.70;;;11.90;55.50;;;;;;349661;28;1036;-54
2024/01/01 00:09:27;;;;;;;24.95;16.67;;;11.90;55.50;;;;;;349772;28;1063;-56
2024/01/01 00:09:37;;;;;;;26.08;16.20;;;11.90;55.50;;;;;;349665;28;925;-55
2024/01/01 00:09:48;;;;;;;26.77;15.98;;;11.90;55.50;;;;;;349779;28;929;-54
2024/01/01 00:09:59;;;;;;;26.37;16.03;;;11.90;55.50;;;;;;349597;28;1116;-54
2024/01/01 00:10:10;;;;;;;24.33;15.88;;;12.00;55.50;;;;;;349713;28;984;-54
2024/01/01 00:10:20;;;;;;;23.33;15.82;;;11.90;55.50;;;;;;349684;28;910;-56
2024/01/01 00:10:31;;;;;;;22.83;15.98;;;11.90;55.50;;;;;;349705;28;1182;-55
2024/01/01 00:10:44;;;;;;;23.27;16.58;;;11.90;55.50;;;;;;349648;28;1122;-55
2024/01/01 00:10:54;;;;;;;22.83;16.02;;;11.90;55.50;;;;;;349734;28;939;-54
2024/01/01 00:11:05;;;;;;;21.88;15.52;;;11.90;55.60;;;;;;349615;28;1170;-55
2024/01/01 00:11:16;;;;;;;22.38;15.65;;;11.90;55.60;;;;;;349736;28;1119;-55
2024/01/01 00:11:27;;;;;;;21.45;15.05;;;11.90;55.60;;;;;;349600;28;1154;-54
2024/01/01 00:11:38;;;;;;;20.80;15.05;;;11.90;55.60;;;;;;349739;28;1122;-54
2024/01/01 00:11:48;;;;;;;20.73;14.90;;;11.90;55.60;;;;;;349661;28;1072;-55
2024/01/01 00:11:59;;;;;;;21.45;15.25;;;11.90;55.60;;;;;;349746;28;854;-55
2024/01/01 00:12:10;;;;;;;22.92;15.18;;;11.90;55.60;;;;;;349662;28;1044;-55
2024/01/01 00:12:21;;;;;;;23.00;14.95;;;11.90;55.60;;;;;;349762;28;1929;-55
2024/01/01 00:12:33;;;;;;;24.38;15.45;;;11.90;55.60;;;;;;349628;28;985;-56
2024/01/01 00:12:43;;;;;;;24.90;16.12;;;11.90;55.60;;;;;;349733;28;1087;-55
2024/01/01 00:12:54;;;;;;;26.23;16.47;;;11.90;55.70;;;;;;349544;28;1044;-55
2024/01/01 00:13:08;;;;;;;26.20;16.85;;;11.90;55.70;;;;;;349734;28;984;-55
2024/01/01 00:13:18;;;;;;;24.48;17.02;;;12.00;55.80;;;;;;349606;28;1092;-57
2024/01/01 00:13:29;;;;;;;24.75;17.25;;;11.90;55.90;;;;;;349734;28;925;-55
2024/01/01 00:13:40;;;;;;;25.00;17.67;;;11.90;55.90;;;;;;349630;28;1108;-54
2024/01/01 00:13:51;;;;;;;27.48;17.92;;;11.90;56.00;;;;;;349722;28;888;-54
2024/01/01 00:14:02;;;;;;;26.33;18.10;;;11.90;56.10;;;;;;349612;28;1077;-54
2024/01/01 00:14:13;;;;;;;26.50;18.02;;;11.90;56.20;;;;;;349736;28;1016;-57
2024/01/01 00:14:24;;;;;;;24.83;18.08;;;11.90;56.20;;;;;;349733;28;849;-55
2024/01/01 00:14:34;;;;;;;25.70;17.90;;;11.90;56.20;;;;;;349722;28;1044;-51
2024/01/01 00:14:45;;;;;;;25.48;17.27;;;11.90;56.30;;;;;;349594;28;1155;-54
2024/01/01 00:14:56;;;;;;;26.02;17.13;;;11.90;56.20;;;;;;349710;28;980;-54
2024/01/01 00:15:07;;;;;;;26.37;17.30;;;11.90;56.20;;;;;;349657;28;1415;-54
2024/01/01 00:15:18;;;;;;;27.08;17.48;;;11.90;56.20;;;;;;349724;28;1131;-53
2024/01/01 00:15:28;;;;;;;27.43;17.07;;;11.90;56.10;;;;;;349625;28;1112;-54
2024/01/01 00:15:39;;;;;;;25.15;16.60;;;11.90;56.10;;;;;;349706;28;1079;-54
2024/01/01 00:15:50;;;;;;;24.05;16.35;;;12.00;56.10;;;;;;349727;28;937;-57
2024/01/01 00:16:01;;;;;;;23.52;16.27;;;11.90;56.00;;;;;;349673;28;1171;-55
2024/01/01 00:16:14;;;;;;;24.02;16.73;;;11.90;55.90;;;;;;349629;28;1098;-54
2024/01/01 00:16:25;;;;;;;23.55;16.83;;;11.90;55.90;;;;;;349679;28;1420;-54
2024/01/01 00:16:36;;;;;;;25.50;17.00;;;11.90;55.80;;;;;;349651;28;1210;-53
2024/01/01 00:16:46;;;;;;;26.63;17.13;;;11.90;55.80;;;;;;349719;28;996;-54
2024/01/01 00:16:57;;;;;;;27.52;17.48;;;11.90;55.80;;;;;;349582;28;1032;-53
2024/01/01 00:17:08;;;;;;;25.23;17.88;;;11.90;55.80;;;;;;349744;28;1005;-56
2024/01/01 00:17:19;;;;;;;25.95;19.00;;;11.90;55.80;;;;;;349751;28;862;-55
2024/01/01 00:17:29;;;;;;;26.05;19.55;;;11.90;55.70;;;;;;349702;28;956;-54
2024/01/01 00:17:40;;;;;;;27.57;19.70;;;11.90;55.80;;;;;;349665;28;917;-55
2024/01/01 00:17:51;;;;;;;27.95;19.70;;;11.90;55.70;;;;;;349762;28;969;-55
2024/01/01 00:18:02;;;;;;;28.85;19.92;;;11.90;55.80;;;;;;349606;28;1905;-55
2024/01/01 00:18:14;;;;;;;27.58;20.02;;;11.90;55.70;;;;;;349754;28;1044;-55
2024/01/01 00:18:25;;;;;;;29.23;19.92;;;11.90;55.70;;;;;;349615;28;1048;-56
2024/01/01 00:18:36;;;;;;;28.90;20.03;;;11.90;55.80;;;;;;349686;28;1396;-54
2024/01/01 00:18:47;;;;;;;26.90;19.80;;;11.90;55.80;;;;;;349701;28;976;-55
2024/01/01 00:18:58;;;;;;;26.75;19.98;;;11.90;55.70;;;;;;349754;28;874;-55
2024/01/01 00:19:08;;;;;;;28.38;20.55;;;11.90;55.80;;;;;;349677;28;1858;-55
2024/01/01 00:19:19;;;;;;;31.42;21.25;;;11.90;55.80;;;;;;349754;28;1047;-55
2024/01/01 00:19:30;;;;;;;30.77;21.05;;;11.90;55.70;;;;;;349734;28;1055;-55
2024/01/01 00:19:41;;;;;;;30.55;21.42;;;11.90;55.70;;;;;;349732;28;1290;-55
2024/01/01 00:19:52;;;;;;;32.10;22.48;;;11.90;55.70;;;;;;349599;28;1029;-57
2024/01/01 00:20:03;;;;;;;34.10;23.90;;;11.90;55.80;;;;;;349686;28;2110;-54
2024/01/01 00:20:14;;;;;;;32.80;23.83;;;11.90;55.70;;;;;;349670;28;1139;-55
2024/01/01 00:20:25;;;;;;;32.72;23.58;;;11.80;55.70;;;;;;349743;28;924;-54
2024/01/01 00:20:35;;;;;;;32.20;23.03;;;11.80;55.70;;;;;;349667;28;883;-53
2024/01/01 00:20:46;;;;;;;30.73;22.63;;;11.80;55.80;;;;;;349682;28;1108;-54
2024/01/01 00:20:57;;;;;;;30.20;22.75;;;11.80;55.80;;;;;;349693;28;1098;-55
2024/01/01 00:21:08;;;;;;;31.77;23.20;;;11.80;55.80;;;;;;349705;28;1566;-56
2024/01/01 00:21:22;;;;;;;33.88;23.70;;;11.80;55.90;;;;;;349639;28;1000;-55
2024/01/01 00:21:32;;;;;;;31.48;24.02;;;11.80;55.90;;;;;;349761;28;909;-55
2024/01/01 00:21:43;;;;;;;32.08;24.00;;;11.80;56.00;;;;;;349710;28;1265;-53
2024/01/01 00:21:54;;;;;;;30.58;24.42;;;11.80;56.10;;;;;;349645;28;1004;-53
2024/01/01 00:22:05;;;;;;;31.23;24.80;;;11.90;56.20;;;;;;349708;28;1077;-53
2024/01/01 00:22:16;;;;;;;31.65;25.52;;;11.80;56.30;;;;;;349775;28;919;-53
2024/01/01 00:22:26;;;;;;;32.72;25.27;;;11.80;56.40;;;;;;349750;28;885;-58
2024/01/01 00:22:37;;;;;;;32.35;24.70;;;11.80;56.50;;;;;;349686;28;898;-55
2024/01/01 00:22:49;;;;;;;32.17;24.83;;;11.80;56.40;;;;;;349711;28;988;-55
2024/01/01 00:23:00;;;;;;;32.20;25.35;;;11.80;56.50;;;;;;349698;28;1201;-54
2024/01/01 00:23:11;;;;;;;33.50;25.57;;;11.80;56.40;;;;;;349737;28;907;-54
2024/01/01 00:23:21;;;;;;;34.08;24.80;;;11.80;56.50;;;;;;349631;28;1004;-54
2024/01/01 00:23:32;;;;;;;35.20;24.70;;;11.80;56.40;;;;;;349690;28;1055;-55
2024/01/01 00:23:43;;;;;;;32.75;24.45;;;11.80;56.40;;;;;;349722;28;1909;-55
2024/01/01 00:23:54;;;;;;;32.35;25.17;;;11.90;56.30;;;;;;349650;28;964;-55
2024/01/01 00:24:05;;;;;;;31.02;24.88;;;11.80;56.30;;;;;;349670;28;898;-54
2024/01/01 00:24:17;;;;;;;35.25;25.92;;;11.80;56.30;;;;;;349735;28;964;-54
2024/01/01 00:24:27;;;;;;;38.97;25.15;;;11.90;56.30;;;;;;349706;28;1040;-54
2024/01/01 00:24:38;;;;;;;38.67;25.45;;;11.90;56.20;;;;;;349687;28;1032;-56
2024/01/01 00:24:49;;;;;;;36.88;25.50;;;11.80;56.30;;;;;;349672;28;1119;-55
2024/01/01 00:25:00;;;;;;;35.08;26.50;;;11.80;56.30;;;;;;349605;28;1108;-54
2024/01/01 00:25:10;;;;;;;34.95;26.83;;;11.80;56.30;;;;;;349612;28;1024;-57
2024/01/01 00:25:21;;;;;;;36.03;27.27;;;11.80;56.20;;;;;;349578;28;1037;-56
2024/01/01 00:25:35;;;;;;;36.72;27.85;;;11.80;56.20;;;;;;349480;28;1092;-55
2024/01/01 00:25:46;;;;;;;39.15;29.15;;;11.80;56.20;;;;;;349608;28;1010;-54
2024/01/01 00:25:57;;;;;;;40.73;29.23;;;11.80;56.30;;;;;;349538;28;1119;-54
2024/01/01 00:26:08;;;;;;;43.65;29.58;;;11.80;56.30;;;;;;349543;28;1588;-55
2024/01/01 00:26:18;;;;;;;42.80;29.17;;;11.80;56.30;;;;;;349553;28;1025;-54
2024/01/01 00:26:29;;;;;;;39.03;28.15;;;11.80;56.30;;;;;;349617;28;839;-55
2024/01/01 00:26:40;;;;;;;33.77;26.63;;;11.80;56.40;;;;;;349589;28;1051;-55
2024/01/01 00:26:51;;;;;;;33.43;25.70;;;11.80;56.40;;;;;;349609;28;920;-55
2024/01/01 00:27:02;;;;;;;34.13;25.48;;;11.80;56.40;;;;;;349504;28;1068;-54
2024/01/01 00:27:13;;;;;;;33.63;25.30;;;11.80;56.40;;;;;;349737;28;869;-54
2024/01/01 00:27:24;;;;;;;33.10;25.23;;;11.80;56.40;;;;;;349747;28;1214;-55
2024/01/01 00:27:35;;;;;;;34.97;25.27;;;11.80;56.40;;;;;;349645;28;1131;-55
2024/01/01 00:27:46;;;;;;;34.85;24.95;;;11.80;56.40;;;;;;349545;28;1421;-55
2024/01/01 00:27:57;;;;;;;31.98;23.98;;;11.80;56.40;;;;;;349716;28;977;-54
2024/01/01 00:28:07;;;;;;;30.63;23.00;;;11.80;56.30;;;;;;349703;28;1067;-55
2024/01/01 00:28:18;;;;;;;28.90;21.95;;;11.80;56.30;;;;;;349718;28;1012;-54
2024/01/01 00:28:29;;;;;;;28.92;21.67;;;11.80;56.20;;;;;;349613;28;1104;-57
2024/01/01 00:28:40;;;;;;;28.35;21.17;;;11.80;56.20;;;;;;349641;28;1103;-55
2024/01/01 00:28:50;;;;;;;29.70;20.60;;;11.80;56.10;;;;;;349724;28;1070;-53
2024/01/01 00:29:05;;;;;;;28.33;19.45;;;11.80;56.10;;;;;;349684;28;1147;-55
2024/01/01 00:29:16;;;;;;;27.60;18.88;;;11.80;56.10;;;;;;349668;28;1063;-57
2024/01/01 00:29:27;;;;;;;25.98;18.52;;;11.80;56.10;;;;;;349660;28;1391;-55
2024/01/01 00:29:38;;;;;;;23.90;18.17;;;11.80;56.00;;;;;;349727;28;974;-54
2024/01/01 00:29:48;;;;;;;23.70;18.33;;;11.80;56.00;;;;;;349720;28;973;-55
2024/01/01 00:30:03;;;;;;;25.67;18.50;;;11.80;56.00;;;;;;349646;28;1090;-56
2024/01/01 00:30:13;;;;;;;25.20;17.90;;;11.80;56.10;;;;;;349636;28;1364;-54
2024/01/01 00:30:24;;;;;;;25.35;17.45;;;11.80;56.10;;;;;;349775;28;818;-55
2024/01/01 00:30:36;;;;;;;25.55;17.02;;;11.80;56.10;;;;;;349673;28;1167;-55
2024/01/01 00:30:47;;;;;;;26.02;17.35;;;11.80;56.10;;;;;;349638;28;1051;-55
2024/01/01 00:30:57;;;;;;;25.73;17.63;;;11.80;56.10;;;;;;349661;28;1017;-54
2024/01/01 00:31:08;;;;;;;24.92;17.77;;;11.80;56.10;;;;;;349744;28;842;-54
2024/01/01 00:31:19;;;;;;;25.17;18.00;;;11.80;56.10;;;;;;349718;28;996;-53
2024/01/01 00:31:31;;;;;;;25.13;18.10;;;11.80;56.10;;;;;;349673;28;948;-56
2024/01/01 00:31:43;;;;;;;25.10;18.33;;;11.80;56.10;;;;;;349675;28;1028;-55
2024/01/01 00:31:54;;;;;;;25.95;18.23;;;11.70;56.10;;;;;;349658;28;1695;-53
2024/01/01 00:32:05;;;;;;;26.30;18.52;;;11.70;56.20;;;;;;349703;28;908;-54
2024/01/01 00:32:16;;;;;;;24.20;18.20;;;11.70;56.20;;;;;;349653;28;1119;-56
2024/01/01 00:32:27;;;;;;;24.67;17.88;;;11.70;56.20;;;;;;349731;28;830;-55
2024/01/01 00:32:38;;;;;;;24.52;17.33;;;11.70;56.20;;;;;;349703;28;921;-55
2024/01/01 00:32:48;;;;;;;25.45;17.33;;;11.70;56.20;;;;;;349733;28;908;-54
2024/01/01 00:32:59;;;;;;;26.03;17.47;;;11.70;56.30;;;;;;349597;28;1020;-55
2024/01/01 00:33:10;;;;;;;26.33;18.08;;;11.70;56.30;;;;;;349652;28;1099;-55
2024/01/01 00:33:21;;;;;;;27.25;18.05;;;11.70;56.30;;;;;;349607;28;1472;-55
2024/01/01 00:33:32;;;;;;;26.35;17.85;;;11.70;56.40;;;;;;349720;28;1008;-55
2024/01/01 00:33:42;;;;;;;25.33;17.90;;;11.70;56.40;;;;;;349589;28;996;-54
2024/01/01 00:33:53;;;;;;;24.50;17.87;;;11.70;56.40;;;;;;349751;28;858;-55
2024/01/01 00:34:04;;;;;;;24.80;17.50;;;11.70;56.50;;;;;;349745;28;909;-54
2024/01/01 00:34:14;;;;;;;24.45;17.08;;;11.70;56.40;;;;;;349642;28;1159;-54
2024/01/01 00:34:25;;;;;;;24.77;17.20;;;11.70;56.50;;;;;;349674;28;1101;-54
2024/01/01 00:34:36;;;;;;;24.35;17.50;;;11.70;56.50;;;;;;349622;28;1072;-53
2024/01/01 00:34:47;;;;;;;24.33;17.77;;;11.70;56.50;;;;;;349693;28;1008;-54
2024/01/01 00:34:58;;;;;;;23.55;17.52;;;11.70;56.50;;;;;;349679;28;952;-53
2024/01/01 00:35:09;;;;;;;23.33;17.30;;;11.70;56.50;;;;;;349672;28;1770;-55
2024/01/01 00:35:19;;;;;;;24.70;17.05;;;11.70;56.50;;;;;;349681;28;1035;-55
2024/01/01 00:35:30;;;;;;;25.40;17.48;;;11.70;56.50;;;;;;349676;28;1035;-55
2024/01/01 00:35:41;;;;;;;25.30;17.48;;;11.70;56.50;;;;;;349584;28;1374;-55
2024/01/01 00:35:52;;;;;;;25.75;17.98;;;11.70;56.50;;;;;;349677;28;881;-55
2024/01/01 00:36:02;;;;;;;26.97;17.67;;;11.70;56.50;;;;;;349686;28;1013;-54
2024/01/01 00:36:13;;;;;;;26.50;17.52;;;11.70;56.50;;;;;;349677;28;906;-54
2024/01/01 00:36:24;;;;;;;25.52;17.20;;;11.70;56.60;;;;;;349699;28;1087;-54
2024/01/01 00:36:35;;;;;;;22.90;17.05;;;11.70;56.60;;;;;;349718;28;1040;-54
2024/01/01 00:36:45;;;;;;;24.17;17.13;;;11.70;56.60;;;;;;349672;28;1040;-55
2024/01/01 00:36:56;;;;;;;25.33;16.97;;;11.70;56.60;;;;;;349670;28;1021;-55
2024/01/01 00:37:07;;;;;;;25.83;17.05;;;11.70;56.60;;;;;;349709;28;1068;-55
2024/01/01 00:37:18;;;;;;;25.45;17.33;;;11.70;56.70;;;;;;349657;28;1084;-55
2024/01/01 00:37:28;;;;;;;25.60;17.45;;;11.70;56.70;;;;;;349745;28;911;-54
2024/01/01 00:37:39;;;;;;;24.77;17.27;;;11.70;56.70;;;;;;349729;28;904;-55
2024/01/01 00:37:50;;;;;;;26.60;17.47;;;11.70;56.70;;;;;;349666;28;911;-55
2024/01/01 00:38:02;;;;;;;24.58;17.77;;;11.70;56.70;;;;;;349595;28;1979;-54
2024/01/01 00:38:13;;;;;;;23.75;17.75;;;11.70;56.70;;;;;;349710;28;1579;-54
2024/01/01 00:38:23;;;;;;;22.95;18.05;;;11.70;56.70;;;;;;349617;28;984;-55
2024/01/01 00:38:34;;;;;;;24.92;18.13;;;11.70;56.70;;;;;;349718;28;810;-55
2024/01/01 00:38:45;;;;;;;27.50;18.42;;;11.70;56.70;;;;;;349656;28;1036;-55
2024/01/01 00:38:56;;;;;;;28.70;18.40;;;11.70;56.80;;;;;;349611;28;2232;-54
2024/01/01 00:39:06;;;;;;;27.77;18.60;;;11.70;56.80;;;;;;349713;28;1056;-54
2024/01/01 00:39:17;;;;;;;27.92;18.20;;;11.70;56.80;;;;;;349705;28;1060;-55
2024/01/01 00:39:28;;;;;;;27.52;17.63;;;11.70;56.80;;;;;;349591;28;2087;-54
2024/01/01 00:39:39;;;;;;;25.92;17.45;;;11.70;56.80;;;;;;349744;28;878;-56
2024/01/01 00:39:50;;;;;;;26.83;17.73;;;11.70;56.80;;;;;;349552;28;1497;-54
2024/01/01 00:40:01;;;;;;;27.17;18.20;;;11.70;56.80;;;;;;349696;28;1078;-55
2024/01/01 00:40:12;;;;;;;27.73;18.17;;;11.70;56.90;;;;;;349618;28;1048;-55
2024/01/01 00:40:23;;;;;;;27.75;18.23;;;11.70;56.90;;;;;;349683;28;1044;-54
2024/01/01 00:40:34;;;;;;;27.08;18.05;;;11.70;56.90;;;;;;349589;28;1056;-55
2024/01/01 00:40:44;;;;;;;25.15;17.83;;;11.70;56.90;;;;;;349726;28;1024;-55
2024/01/01 00:40:55;;;;;;;25.15;17.48;;;11.70;57.00;;;;;;349583;28;1004;-53
2024/01/01 00:41:12;;;;;;;25.33;17.33;;;11.70;57.00;;;;;;349728;28;988;-55
2024/01/01 00:41:22;;;;;;;27.23;17.90;;;11.70;57.00;;;;;;349695;28;1123;-54
2024/01/01 00:41:33;;;;;;;26.27;17.67;;;11.70;56.90;;;;;;349714;28;904;-55
2024/01/01 00:41:47;;;;;;;23.65;17.48;;;11.70;56.90;;;;;;349603;28;1798;-53
2024/01/01 00:41:58;;;;;;;23.05;16.80;;;11.70;56.90;;;;;;349654;28;1143;-54
2024/01/01 00:42:08;;;;;;;23.33;16.48;;;11.70;56.90;;;;;;349570;28;1055;-54
2024/01/01 00:42:20;;;;;;;24.50;16.95;;;11.70;56.80;;;;;;349589;28;818;-55
2024/01/01 00:42:31;;;;;;;26.20;17.25;;;11.70;56.80;;;;;;349455;28;1310;-54
2024/01/01 00:42:46;;;;;;;25.23;17.80;;;11.70;56.80;;;;;;349715;28;997;-54
2024/01/01 00:42:57;;;;;;;26.15;18.27;;;11.70;56.80;;;;;;349599;28;2083;-54
2024/01/01 00:43:10;;;;;;;25.63;17.58;;;11.70;56.80;;;;;;349656;28;1654;-55
2024/01/01 00:43:20;;;;;;;25.05;17.15;;;11.70;56.80;;;;;;349613;28;985;-54
2024/01/01 00:43:32;;;;;;;23.38;16.92;;;11.70;56.80;;;;;;349692;28;985;-54
2024/01/01 00:43:43;;;;;;;24.50;17.52;;;11.70;56.80;;;;;;349609;28;1107;-56
2024/01/01 00:43:54;;;;;;;24.75;17.77;;;11.70;56.80;;;;;;349698;28;1154;-55
2024/01/01 00:44:05;;;;;;;24.17;17.60;;;11.70;56.80;;;;;;349589;28;1075;-55
2024/01/01 00:44:16;;;;;;;25.45;17.35;;;11.70;56.90;;;;;;349762;28;933;-57
2024/01/01 00:44:27;;;;;;;24.40;16.92;;;11.70;56.90;;;;;;349681;28;956;-54
2024/01/01 00:44:38;;;;;;;25.35;17.15;;;11.70;56.90;;;;;;349759;28;972;-55
2024/01/01 00:44:49;;;;;;;25.27;17.55;;;11.70;57.00;;;;;;349643;28;1030;-54
2024/01/01 00:44:59;;;;;;;26.02;18.00;;;11.70;57.00;;;;;;349614;28;1132;-55
2024/01/01 00:45:10;;;;;;;25.23;17.83;;;11.70;56.90;;;;;;349600;28;1044;-54
2024/01/01 00:45:21;;;;;;;24.05;17.60;;;11.70;56.90;;;;;;349677;28;1099;-55
2024/01/01 00:45:32;;;;;;;25.98;18.27;;;11.70;57.00;;;;;;349650;28;1207;-54
2024/01/01 00:45:42;;;;;;;26.80;18.70;;;11.70;57.00;;;;;;349660;28;1269;-54
2024/01/01 00:45:53;;;;;;;27.23;18.88;;;11.70;57.00;;;;;;349627;28;1792;-55
2024/01/01 00:46:04;;;;;;;25.97;18.23;;;11.70;57.00;;;;;;349633;28;1035;-56
2024/01/01 00:46:14;;;;;;;26.35;18.77;;;11.70;57.00;;;;;;349634;28;1137;-54
2024/01/01 00:46:25;;;;;;;27.23;19.42;;;11.70;56.90;;;;;;349703;28;981;-54
2024/01/01 00:46:36;;;;;;;28.38;20.83;;;11.70;56.90;;;;;;349611;28;1059;-55
2024/01/01 00:46:47;;;;;;;37.50;26.30;;;11.70;56.90;;;;;;349665;28;992;-54
2024/01/01 00:46:58;;;;;;;44.07;30.20;;;11.70;56.90;;;;;;349641;28;1027;-55
2024/01/01 00:47:09;;;;;;;47.15;33.10;;;11.70;56.90;;;;;;349649;28;1631;-55
2024/01/01 00:47:20;;;;;;;41.92;30.55;;;11.70;56.90;;;;;;349608;28;1008;-54
2024/01/01 00:47:30;;;;;;;44.70;31.53;;;11.70;57.00;;;;;;349700;28;864;-54
2024/01/01 00:47:41;;;;;;;47.45;32.45;;;11.70;57.00;;;;;;349598;28;1501;-55
2024/01/01 00:47:52;;;;;;;50.78;33.72;;;11.70;57.10;;;;;;349620;28;1419;-55
2024/01/01 00:48:03;;;;;;;50.53;34.75;;;11.70;57.10;;;;;;349637;28;957;-54
2024/01/01 00:48:14;;;;;;;48.63;33.67;;;11.60;57.10;;;;;;349688;28;1005;-55
2024/01/01 00:48:25;;;;;;;42.10;31.13;;;11.60;57.10;;;;;;349643;28;960;-56
2024/01/01 00:48:35;;;;;;;36.22;28.48;;;11.70;57.10;;;;;;349685;28;1011;-55
2024/01/01 00:48:46;;;;;;;36.83;28.00;;;11.70;57.10;;;;;;349511;28;1619;-54
2024/01/01 00:48:57;;;;;;;36.92;28.08;;;11.60;57.20;;;;;;349647;28;980;-55
2024/01/01 00:49:08;;;;;;;40.38;28.95;;;11.60;57.20;;;;;;349606;28;1095;-54
2024/01/01 00:49:18;;;;;;;38.40;28.60;;;11.60;57.20;;;;;;349687;28;806;-54
2024/01/01 00:49:29;;;;;;;40.83;28.83;;;11.60;57.30;;;;;;349657;28;1193;-55
2024/01/01 00:49:40;;;;;;;38.28;28.88;;;11.60;57.30;;;;;;349673;28;904;-55
2024/01/01 00:49:51;;;;;;;39.57;28.97;;;11.60;57.30;;;;;;349590;28;1152;-54
2024/01/01 00:50:03;;;;;;;38.42;28.52;;;11.60;57.30;;;;;;349733;28;1028;-55
2024/01/01 00:50:14;;;;;;;38.10;28.27;;;11.60;57.40;;;;;;349659;28;1056;-54
2024/01/01 00:50:25;;;;;;;37.67;28.13;;;11.60;57.40;;;;;;349665;28;1322;-55
2024/01/01 00:50:36;;;;;;;36.08;28.00;;;11.60;57.30;;;;;;349562;28;1265;-55
2024/01/01 00:50:47;;;;;;;38.20;27.23;;;11.60;57.30;;;;;;349711;28;929;-54
2024/01/01 00:50:57;;;;;;;38.30;26.63;;;11.60;57.30;;;;;;349705;28;1052;-53
2024/01/01 00:51:08;;;;;;;38.33;26.40;;;11.60;57.30;;;;;;349707;28;826;-54
2024/01/01 00:51:19;;;;;;;35.50;27.02;;;11.60;57.30;;;;;;349581;28;1115;-55
2024/01/01 00:51:30;;;;;;;33.95;27.00;;;11.60;57.40;;;;;;349716;28;1015;-53
2024/01/01 00:51:41;;;;;;;33.95;27.17;;;11.60;57.40;;;;;;349673;28;1028;-54
2024/01/01 00:51:51;;;;;;;35.40;27.63;;;11.60;57.40;;;;;;349638;28;1182;-53
2024/01/01 00:52:02;;;;;;;34.80;27.67;;;11.60;57.40;;;;;;349610;28;1033;-56
2024/01/01 00:52:13;;;;;;;37.38;28.38;;;11.60;57.40;;;;;;349677;28;1031;-55
2024/01/01 00:52:24;;;;;;;38.20;27.65;;;11.60;57.40;;;;;;349727;28;905;-54
2024/01/01 00:52:35;;;;;;;37.63;27.60;;;11.60;57.50;;;;;;349708;28;1091;-55
2024/01/01 00:52:46;;;;;;;35.50;27.50;;;11.60;57.50;;;;;;349576;28;1040;-54
2024/01/01 00:52:56;;;;;;;34.60;27.42;;;11.60;57.50;;;;;;349571;28;1426;-55
2024/01/01 00:53:07;;;;;;;34.00;26.80;;;11.60;57.50;;;;;;349718;28;1020;-55
2024/01/01 00:53:18;;;;;;;33.80;25.60;;;11.60;57.50;;;;;;349620;28;1033;-55
2024/01/01 00:53:29;;;;;;;36.87;25.77;;;11.60;57.50;;;;;;349650;28;1244;-54
2024/01/01 00:53:39;;;;;;;36.55;26.00;;;11.60;57.50;;;;;;349637;28;1028;-57
2024/01/01 00:53:52;;;;;;;34.58;25.65;;;11.60;57.50;;;;;;349680;28;997;-55
2024/01/01 00:54:03;;;;;;;30.50;24.27;;;11.60;57.50;;;;;;349694;28;837;-54
2024/01/01 00:54:13;;;;;;;30.38;23.55;;;11.60;57.50;;;;;;349568;28;1144;-54
2024/01/01 00:54:28;;;;;;;30.98;23.80;;;11.60;57.50;;;;;;349684;28;1028;-56
2024/01/01 00:54:38;;;;;;;32.30;24.67;;;11.60;57.50;;;;;;349644;28;921;-54
2024/01/01 00:54:49;;;;;;;32.33;24.55;;;11.60;57.60;;;;;;349661;28;849;-53
2024/01/01 00:55:00;;;;;;;32.25;24.60;;;11.60;57.60;;;;;;349654;28;1029;-55
2024/01/01 00:55:11;;;;;;;31.65;23.63;;;11.60;57.60;;;;;;349580;28;1072;-54
2024/01/01 00:55:22;;;;;;;32.40;23.67;;;11.60;57.60;;;;;;349674;28;1810;-54
2024/01/01 00:55:32;;;;;;;31.37;23.20;;;11.60;57.60;;;;;;349693;28;968;-54
2024/01/01 00:55:43;;;;;;;31.80;23.23;;;11.60;57.60;;;;;;349651;28;1029;-55
2024/01/01 00:55:54;;;;;;;32.75;22.98;;;11.50;57.50;;;;;;349674;28;874;-55
2024/01/01 00:56:06;;;;;;;33.10;23.50;;;11.60;57.50;;;;;;349627;28;1273;-55
2024/01/01 00:56:16;;;;;;;30.88;22.98;;;11.60;57.50;;;;;;349579;28;1048;-54
2024/01/01 00:56:27;;;;;;;30.77;23.10;;;11.60;57.50;;;;;;349701;28;1055;-54
2024/01/01 00:56:38;;;;;;;29.60;23.03;;;11.60;57.50;;;;;;349706;28;880;-54
2024/01/01 00:56:51;;;;;;;29.73;23.20;;;11.50;57.50;;;;;;349582;28;1112;-55
2024/01/01 00:57:01;;;;;;;29.55;23.20;;;11.60;57.60;;;;;;349602;28;1124;-54
2024/01/01 00:57:12;;;;;;;30.80;23.67;;;11.60;57.60;;;;;;349684;28;1835;-54
2024/01/01 00:57:23;;;;;;;33.17;24.23;;;11.60;57.70;;;;;;349623;28;1145;-55
2024/01/01 00:57:34;;;;;;;35.37;23.97;;;11.60;57.70;;;;;;349732;28;969;-54
2024/01/01 00:57:45;;;;;;;33.10;23.70;;;11.50;57.70;;;;;;349636;28;968;-55